Terminal Aerodrome Forecast
Issued by NWS

Home | Current Version | Previous Version | Text Only | Print | Product List | Glossary On
Versions: 1 2 3 4 5 6 7 8 9 10 11 12 13 14 15 16 17 18 19 20 21 22
000
FTUS43 KGRR 021134
TAFBTL
TAF
KBTL 021134Z 0212/0312 21006KT 6SM BR VCSH SCT250
     FM021400 27007KT P6SM BKN035
     FM021600 27009KT P6SM BKN050
     FM030900 VRB04KT 4SM -SHRA BR VCTS OVC035CB=

USA.gov is the U.S. government's official web portal to all federal, state and local government web resources and services.